Terminal Aerodrome Forecast
Issued by NWS

Home | Current Version | Previous Version | Text Only | Print | Product List | Glossary On
Versions: 1 2 3 4 5 6 7 8 9 10 11 12 13 14
000
FTUS44 KLIX 171616 AAA
TAFHUM
TAF AMD
KHUM 171616Z 1716/1812 30006KT 4SM RA SCT007 BKN017 OVC022
      TEMPO 1716/1718 2SM +RA BKN007
     FM172000 15004KT P6SM BKN030 OVC040
     FM172200 14004KT P6SM BKN045 OVC050
     FM180300 13004KT 5SM BR BKN025 OVC050=

USA.gov is the U.S. government's official web portal to all federal, state and local government web resources and services.